Time;durP1;ratioP1;P1;durP2;ratioP2;P2;SDS_P1;SDS_P2;PMS_P1;PMS_P2;Temp;Humidity;BMP_temperature;BMP_pressure;BME280_temperature;BME280_humidity;BME280_pressure;Samples;Min_cycle;Max_cycle;Signal;HPM_P1;HPM_P2
2023/05/03 00:02:13;;;;;;;4.78;2.65;;;;;;;;;;5041168;28;20045;-66
2023/05/03 00:04:40;;;;;;;2.47;2.15;;;;;;;;;;5048635;28;20045;-66
2023/05/03 00:07:07;;;;;;;5.68;2.47;;;;;;;;;;5051059;28;20041;-65
2023/05/03 00:09:34;;;;;;;8.55;2.80;;;;;;;;;;5046396;28;20043;-66
2023/05/03 00:12:00;;;;;;;4.00;2.50;;;;;;;;;;5042013;28;20052;-66
2023/05/03 00:14:26;;;;;;;3.30;2.28;;;;;;;;;;5025124;28;20057;-66
2023/05/03 00:16:52;;;;;;;2.53;2.20;;;;;;;;;;5048675;28;20048;-66
2023/05/03 00:19:18;;;;;;;5.07;2.10;;;;;;;;;;5053009;28;20041;-66
2023/05/03 00:21:45;;;;;;;3.35;2.40;;;;;;;;;;5019129;28;20051;-66
2023/05/03 00:24:11;;;;;;;3.75;2.53;;;;;;;;;;5032195;28;20617;-66
2023/05/03 00:26:37;;;;;;;3.40;2.33;;;;;;;;;;5051764;28;20044;-66
2023/05/03 00:29:03;;;;;;;2.60;2.13;;;;;;;;;;5031132;28;20049;-66
2023/05/03 00:31:28;;;;;;;4.32;2.15;;;;;;;;;;5041886;28;20411;-66
2023/05/03 00:33:54;;;;;;;2.63;2.42;;;;;;;;;;5047060;28;20037;-66
2023/05/03 00:36:20;;;;;;;5.28;3.17;;;;;;;;;;5051370;28;20434;-66
2023/05/03 00:38:46;;;;;;;5.55;2.50;;;;;;;;;;5032602;28;20042;-65
2023/05/03 00:41:12;;;;;;;5.20;2.60;;;;;;;;;;5049060;28;20068;-66
2023/05/03 00:43:38;;;;;;;4.05;3.10;;;;;;;;;;5049267;28;20045;-66
2023/05/03 00:46:05;;;;;;;4.75;2.72;;;;;;;;;;5039157;28;20413;-66
2023/05/03 00:48:32;;;;;;;5.70;2.58;;;;;;;;;;5065263;28;20171;-66
2023/05/03 00:50:58;;;;;;;4.88;2.38;;;;;;;;;;5047805;28;20045;-66
2023/05/03 00:53:24;;;;;;;4.05;2.50;;;;;;;;;;5050020;28;20529;-66
2023/05/03 00:55:54;;;;;;;3.58;2.50;;;;;;;;;;5047931;28;20037;-66
2023/05/03 00:58:21;;;;;;;6.03;2.38;;;;;;;;;;5058709;28;20040;-66
2023/05/03 01:00:48;;;;;;;3.58;2.55;;;;;;;;;;5048777;28;20048;-66
2023/05/03 01:03:14;;;;;;;5.47;2.45;;;;;;;;;;5034638;28;20044;-66
2023/05/03 01:06:01;;;;;;;3.80;2.10;;;;;;;;;;5051839;28;20044;-66
2023/05/03 01:08:45;;;;;;;3.00;2.25;;;;;;;;;;5053729;28;20060;-66
2023/05/03 01:11:19;;;;;;;2.40;2.20;;;;;;;;;;5053097;28;20044;-66
2023/05/03 01:13:56;;;;;;;2.80;2.30;;;;;;;;;;5053010;28;20503;-66
2023/05/03 01:16:34;;;;;;;5.68;2.22;;;;;;;;;;5054732;28;20069;-66
2023/05/03 01:19:01;;;;;;;4.25;2.33;;;;;;;;;;5052104;28;20029;-66
2023/05/03 01:21:29;;;;;;;4.40;2.95;;;;;;;;;;5044310;28;20419;-66
2023/05/03 01:24:10;;;;;;;6.28;3.40;;;;;;;;;;5047289;28;20129;-66
2023/05/03 01:26:36;;;;;;;6.55;3.08;;;;;;;;;;5054652;28;20564;-66
2023/05/03 01:29:03;;;;;;;7.72;3.28;;;;;;;;;;5049461;28;20045;-66
2023/05/03 01:31:37;;;;;;;5.35;2.67;;;;;;;;;;5092637;22;20181;-66
2023/05/03 01:34:17;;;;;;;3.88;2.95;;;;;;;;;;5058006;28;20160;-66
2023/05/03 01:36:44;;;;;;;5.47;3.17;;;;;;;;;;5092959;28;20036;-66
2023/05/03 01:39:12;;;;;;;5.25;3.20;;;;;;;;;;5056523;28;20036;-65
2023/05/03 01:41:39;;;;;;;4.05;3.40;;;;;;;;;;5039487;28;20044;-66
2023/05/03 01:44:06;;;;;;;5.88;3.60;;;;;;;;;;5070972;28;20036;-67
2023/05/03 01:46:32;;;;;;;5.38;3.15;;;;;;;;;;5056288;28;20537;-66
2023/05/03 01:48:58;;;;;;;5.40;3.28;;;;;;;;;;5063947;28;20046;-66
2023/05/03 01:51:24;;;;;;;7.82;3.40;;;;;;;;;;5072938;28;20489;-66
2023/05/03 01:53:50;;;;;;;6.15;3.58;;;;;;;;;;5067792;28;20062;-66
2023/05/03 01:56:16;;;;;;;4.05;2.92;;;;;;;;;;5072782;28;20044;-66
2023/05/03 01:58:42;;;;;;;5.10;3.55;;;;;;;;;;5060180;28;20124;-66
2023/05/03 02:01:08;;;;;;;4.55;3.40;;;;;;;;;;5058322;28;20072;-66
2023/05/03 02:03:34;;;;;;;4.07;2.72;;;;;;;;;;5046007;28;20611;-65
2023/05/03 02:06:00;;;;;;;7.32;3.35;;;;;;;;;;5059362;28;20130;-66
2023/05/03 02:08:26;;;;;;;5.63;3.22;;;;;;;;;;5065886;28;20119;-66
2023/05/03 02:10:52;;;;;;;4.57;3.20;;;;;;;;;;5073455;28;20553;-65
2023/05/03 02:13:18;;;;;;;5.20;3.05;;;;;;;;;;5065098;28;20472;-66
2023/05/03 02:15:44;;;;;;;5.10;3.45;;;;;;;;;;5065772;28;20033;-66
2023/05/03 02:18:10;;;;;;;3.75;2.92;;;;;;;;;;5062667;28;20033;-66
2023/05/03 02:20:36;;;;;;;3.95;2.75;;;;;;;;;;5072331;28;20032;-65
2023/05/03 02:23:06;;;;;;;6.03;3.00;;;;;;;;;;5071925;28;20044;-65
2023/05/03 02:25:32;;;;;;;5.40;3.20;;;;;;;;;;5068024;28;20451;-66
2023/05/03 02:27:58;;;;;;;3.53;2.45;;;;;;;;;;5065352;28;20051;-66
2023/05/03 02:30:24;;;;;;;6.93;3.30;;;;;;;;;;5047535;28;20045;-66
2023/05/03 02:32:50;;;;;;;5.25;3.17;;;;;;;;;;5042417;28;20406;-67
2023/05/03 02:35:16;;;;;;;5.05;3.03;;;;;;;;;;5070224;28;20052;-66
2023/05/03 02:37:41;;;;;;;3.78;3.10;;;;;;;;;;5050203;28;20035;-66
2023/05/03 02:40:08;;;;;;;7.00;3.30;;;;;;;;;;5072176;28;20042;-66
2023/05/03 02:42:34;;;;;;;4.32;3.20;;;;;;;;;;5063006;28;20049;-66
2023/05/03 02:45:00;;;;;;;5.00;2.80;;;;;;;;;;5064456;28;20477;-66
2023/05/03 02:47:26;;;;;;;6.85;3.20;;;;;;;;;;5051841;28;20044;-66
2023/05/03 02:49:52;;;;;;;5.93;3.42;;;;;;;;;;5072556;28;20067;-66
2023/05/03 02:52:18;;;;;;;4.80;3.38;;;;;;;;;;5067429;28;20044;-66
2023/05/03 02:54:46;;;;;;;3.40;2.92;;;;;;;;;;5065435;28;20083;-66
2023/05/03 02:57:12;;;;;;;5.47;3.30;;;;;;;;;;5071229;28;20406;-66
2023/05/03 02:59:38;;;;;;;5.47;3.22;;;;;;;;;;5070977;28;20094;-67
2023/05/03 03:02:04;;;;;;;5.68;3.50;;;;;;;;;;5064111;28;20037;-67
2023/05/03 03:04:30;;;;;;;5.82;3.55;;;;;;;;;;5066671;28;20490;-66
2023/05/03 03:06:56;;;;;;;4.95;3.47;;;;;;;;;;5070500;28;20044;-66
2023/05/03 03:09:22;;;;;;;5.63;3.45;;;;;;;;;;5063698;28;20087;-66
2023/05/03 03:11:48;;;;;;;3.75;3.30;;;;;;;;;;5070502;28;20032;-66
2023/05/03 03:14:13;;;;;;;5.55;3.13;;;;;;;;;;5068915;28;20044;-67
2023/05/03 03:16:39;;;;;;;4.75;2.78;;;;;;;;;;5069991;28;20058;-66
2023/05/03 03:19:05;;;;;;;4.75;3.08;;;;;;;;;;5078396;28;20036;-66
2023/05/03 03:21:31;;;;;;;4.13;3.10;;;;;;;;;;5068507;28;20059;-66
2023/05/03 03:23:58;;;;;;;6.55;3.10;;;;;;;;;;5042117;28;20124;-66
2023/05/03 03:26:24;;;;;;;5.55;3.13;;;;;;;;;;5060638;28;20040;-66
2023/05/03 03:28:50;;;;;;;4.00;3.17;;;;;;;;;;5056716;28;20033;-66
2023/05/03 03:31:17;;;;;;;5.15;3.47;;;;;;;;;;5057337;28;20074;-66
2023/05/03 03:33:43;;;;;;;4.15;3.00;;;;;;;;;;5066847;28;20044;-66
2023/05/03 03:36:09;;;;;;;5.10;3.15;;;;;;;;;;5063970;28;20041;-66
2023/05/03 03:38:35;;;;;;;6.57;3.33;;;;;;;;;;5060333;28;20125;-65
2023/05/03 03:41:01;;;;;;;5.72;3.35;;;;;;;;;;5052044;28;20564;-66
2023/05/03 03:43:27;;;;;;;7.63;3.33;;;;;;;;;;5066741;28;20401;-66
2023/05/03 03:45:53;;;;;;;5.28;3.72;;;;;;;;;;5071345;28;20032;-65
2023/05/03 03:48:19;;;;;;;6.38;3.65;;;;;;;;;;5070670;28;20113;-66
2023/05/03 03:50:45;;;;;;;4.97;3.42;;;;;;;;;;5070660;28;20036;-66
2023/05/03 03:53:11;;;;;;;4.57;3.30;;;;;;;;;;5062633;28;20044;-65
2023/05/03 03:55:37;;;;;;;4.03;3.50;;;;;;;;;;5065205;28;20474;-66
2023/05/03 03:58:03;;;;;;;4.40;3.38;;;;;;;;;;5052242;28;20540;-66
2023/05/03 04:00:29;;;;;;;6.38;3.90;;;;;;;;;;5042429;28;20032;-66
2023/05/03 04:02:55;;;;;;;3.83;3.15;;;;;;;;;;5028196;28;20055;-65
2023/05/03 04:05:21;;;;;;;4.40;3.30;;;;;;;;;;5042183;28;20048;-66
2023/05/03 04:07:47;;;;;;;5.65;3.00;;;;;;;;;;5063097;28;20037;-66
2023/05/03 04:10:13;;;;;;;4.75;3.50;;;;;;;;;;5052522;28;20127;-65
2023/05/03 04:12:39;;;;;;;5.13;3.60;;;;;;;;;;5057020;28;20084;-65
2023/05/03 04:15:05;;;;;;;3.80;3.17;;;;;;;;;;5059668;28;20490;-66
2023/05/03 04:17:33;;;;;;;5.95;3.50;;;;;;;;;;5046948;28;20120;-65
2023/05/03 04:20:00;;;;;;;4.45;3.22;;;;;;;;;;5040187;28;20041;-65
2023/05/03 04:22:26;;;;;;;6.05;3.67;;;;;;;;;;5045512;28;20058;-65
2023/05/03 04:24:53;;;;;;;4.97;3.55;;;;;;;;;;5044759;28;20056;-65
2023/05/03 04:27:19;;;;;;;3.80;3.35;;;;;;;;;;5043084;28;20271;-66
2023/05/03 04:29:45;;;;;;;7.47;3.80;;;;;;;;;;5044429;28;20098;-66
2023/05/03 04:32:13;;;;;;;4.68;3.50;;;;;;;;;;5054325;28;20048;-66
2023/05/03 04:34:39;;;;;;;6.43;3.67;;;;;;;;;;5067665;28;20107;-66
2023/05/03 04:37:07;;;;;;;6.93;3.92;;;;;;;;;;5065395;28;20029;-65
2023/05/03 04:39:33;;;;;;;4.95;3.50;;;;;;;;;;5068770;28;20094;-65
2023/05/03 04:42:00;;;;;;;5.88;3.63;;;;;;;;;;5069509;28;20033;-65
2023/05/03 04:44:27;;;;;;;4.32;3.60;;;;;;;;;;5065088;28;20090;-65
2023/05/03 04:46:53;;;;;;;6.32;3.65;;;;;;;;;;5067540;28;20036;-65
2023/05/03 04:49:19;;;;;;;6.47;3.58;;;;;;;;;;5069907;28;20521;-66
2023/05/03 04:51:45;;;;;;;6.10;3.40;;;;;;;;;;5069804;28;20409;-66
2023/05/03 04:54:11;;;;;;;4.80;3.60;;;;;;;;;;5066614;28;20044;-66
2023/05/03 04:56:37;;;;;;;5.55;3.55;;;;;;;;;;5043916;28;20048;-66
2023/05/03 04:59:04;;;;;;;6.05;3.22;;;;;;;;;;5054125;28;20041;-65
2023/05/03 05:01:30;;;;;;;6.05;3.50;;;;;;;;;;5068225;28;20553;-65
2023/05/03 05:03:56;;;;;;;8.75;3.88;;;;;;;;;;5048677;28;20040;-65
2023/05/03 05:06:22;;;;;;;7.03;3.70;;;;;;;;;;5030669;28;20674;-65
2023/05/03 05:08:48;;;;;;;6.95;4.13;;;;;;;;;;5053579;28;20044;-65
2023/05/03 05:11:15;;;;;;;7.82;4.10;;;;;;;;;;5049170;28;20040;-66
2023/05/03 05:13:41;;;;;;;6.00;3.53;;;;;;;;;;5051977;28;20044;-65
2023/05/03 05:16:07;;;;;;;5.47;3.28;;;;;;;;;;5049353;28;20078;-65
2023/05/03 05:18:33;;;;;;;8.27;3.42;;;;;;;;;;5042201;28;20076;-65
2023/05/03 05:20:59;;;;;;;6.63;3.78;;;;;;;;;;5068357;28;20053;-66
2023/05/03 05:23:26;;;;;;;12.77;4.20;;;;;;;;;;5058895;28;20060;-66
2023/05/03 05:25:52;;;;;;;7.28;4.03;;;;;;;;;;5048094;28;20083;-66
2023/05/03 05:28:18;;;;;;;6.28;3.90;;;;;;;;;;5043226;28;20128;-66
2023/05/03 05:30:44;;;;;;;6.70;4.22;;;;;;;;;;5042655;28;20550;-65
2023/05/03 05:33:10;;;;;;;7.65;3.65;;;;;;;;;;5056840;28;20040;-65
2023/05/03 05:35:36;;;;;;;5.72;3.83;;;;;;;;;;5059447;28;20494;-65
2023/05/03 05:38:02;;;;;;;7.32;4.40;;;;;;;;;;5057761;28;20421;-65
2023/05/03 05:40:28;;;;;;;4.18;3.75;;;;;;;;;;5061585;28;20128;-65
2023/05/03 05:42:54;;;;;;;5.45;3.70;;;;;;;;;;5046530;28;20041;-65
2023/05/03 05:45:20;;;;;;;6.20;3.97;;;;;;;;;;5057574;28;20041;-65
2023/05/03 05:47:46;;;;;;;5.18;4.45;;;;;;;;;;5045983;28;20473;-65
2023/05/03 05:50:12;;;;;;;5.53;4.07;;;;;;;;;;5068360;28;20072;-65
2023/05/03 05:52:38;;;;;;;5.38;4.20;;;;;;;;;;5073290;28;20068;-65
2023/05/03 05:55:05;;;;;;;7.00;4.22;;;;;;;;;;5047358;28;20041;-65
2023/05/03 05:57:31;;;;;;;6.85;4.85;;;;;;;;;;5070558;28;20513;-65
2023/05/03 05:59:57;;;;;;;5.57;4.30;;;;;;;;;;5049996;28;20049;-61
2023/05/03 06:02:23;;;;;;;15.02;7.97;;;;;;;;;;5056457;28;20029;-61
2023/05/03 06:04:49;;;;;;;5.75;4.72;;;;;;;;;;5040621;28;20521;-60
2023/05/03 06:07:15;;;;;;;9.90;4.72;;;;;;;;;;5061851;28;20086;-61
2023/05/03 06:09:42;;;;;;;6.90;4.93;;;;;;;;;;5065330;28;20135;-60
2023/05/03 06:12:09;;;;;;;10.75;5.00;;;;;;;;;;5061713;28;20036;-61
2023/05/03 06:14:35;;;;;;;9.98;4.93;;;;;;;;;;5056550;28;20128;-60
2023/05/03 06:17:01;;;;;;;8.27;4.93;;;;;;;;;;5059999;28;20182;-60
2023/05/03 06:19:27;;;;;;;10.77;6.18;;;;;;;;;;5064348;28;20036;-60
2023/05/03 06:21:53;;;;;;;7.88;4.80;;;;;;;;;;5073261;28;20040;-61
2023/05/03 06:24:19;;;;;;;5.80;4.90;;;;;;;;;;5062427;28;20032;-61
2023/05/03 06:26:47;;;;;;;10.50;5.00;;;;;;;;;;5061972;28;20036;-61
2023/05/03 06:29:13;;;;;;;6.13;4.47;;;;;;;;;;5053242;28;20115;-61
2023/05/03 06:31:40;;;;;;;6.45;4.57;;;;;;;;;;5070864;28;20036;-61
2023/05/03 06:34:06;;;;;;;5.88;4.70;;;;;;;;;;5071772;28;20036;-61
2023/05/03 06:36:32;;;;;;;7.88;5.55;;;;;;;;;;5056781;28;20040;-61
2023/05/03 06:38:58;;;;;;;8.05;4.90;;;;;;;;;;5051925;28;20036;-61
2023/05/03 06:41:24;;;;;;;7.43;5.07;;;;;;;;;;5047305;28;20465;-61
2023/05/03 06:43:50;;;;;;;8.25;4.70;;;;;;;;;;5048985;28;20735;-61
2023/05/03 06:46:16;;;;;;;8.15;4.68;;;;;;;;;;5065034;28;20037;-61
2023/05/03 06:48:42;;;;;;;7.30;4.32;;;;;;;;;;5053492;28;20414;-61
2023/05/03 06:51:08;;;;;;;8.75;4.65;;;;;;;;;;5072090;28;20170;-61
2023/05/03 06:53:34;;;;;;;7.60;4.50;;;;;;;;;;5070100;28;20036;-61
2023/05/03 06:56:02;;;;;;;8.77;4.60;;;;;;;;;;5073162;28;20036;-61
2023/05/03 06:58:28;;;;;;;5.82;4.00;;;;;;;;;;5041070;28;20131;-61
2023/05/03 07:00:54;;;;;;;8.80;3.90;;;;;;;;;;5070911;28;20415;-62
2023/05/03 07:03:20;;;;;;;4.63;3.85;;;;;;;;;;5066399;28;20032;-62
2023/05/03 07:05:46;;;;;;;6.13;4.03;;;;;;;;;;5072089;28;20443;-62
2023/05/03 07:08:12;;;;;;;4.35;3.78;;;;;;;;;;5069373;28;20043;-62
2023/05/03 07:10:38;;;;;;;5.13;3.55;;;;;;;;;;5066316;28;20047;-62
2023/05/03 07:13:04;;;;;;;5.70;3.30;;;;;;;;;;5070331;28;20041;-61
2023/05/03 07:15:31;;;;;;;6.90;3.58;;;;;;;;;;5073547;28;20032;-61
2023/05/03 07:17:56;;;;;;;8.20;3.60;;;;;;;;;;5061425;28;20487;-60
2023/05/03 07:20:23;;;;;;;5.32;3.50;;;;;;;;;;5071132;28;20124;-61
2023/05/03 07:22:48;;;;;;;7.25;3.80;;;;;;;;;;5054605;28;20398;-61
2023/05/03 07:25:16;;;;;;;4.82;3.67;;;;;;;;;;5035536;28;20052;-62
2023/05/03 07:27:42;;;;;;;5.97;3.67;;;;;;;;;;5053669;28;20044;-60
2023/05/03 07:30:09;;;;;;;4.82;3.10;;;;;;;;;;5049807;28;20048;-61
2023/05/03 07:32:35;;;;;;;5.78;2.83;;;;;;;;;;5078374;22;20036;-65
2023/05/03 07:35:02;;;;;;;4.90;3.35;;;;;;;;;;5066464;28;20036;-65
2023/05/03 07:37:28;;;;;;;8.90;3.90;;;;;;;;;;5064811;28;20040;-65
2023/05/03 07:39:54;;;;;;;5.38;2.53;;;;;;;;;;5062724;28;20036;-66
2023/05/03 07:42:20;;;;;;;6.20;2.50;;;;;;;;;;5071848;28;20743;-65
2023/05/03 07:44:46;;;;;;;8.70;3.22;;;;;;;;;;5081817;28;20078;-64
2023/05/03 07:47:12;;;;;;;6.03;2.65;;;;;;;;;;5083290;28;20035;-65
2023/05/03 07:49:38;;;;;;;7.93;2.65;;;;;;;;;;5089999;28;20032;-65
2023/05/03 07:52:04;;;;;;;2.45;2.10;;;;;;;;;;5071037;28;20060;-64
2023/05/03 07:54:30;;;;;;;3.17;2.10;;;;;;;;;;5081593;28;20716;-64
2023/05/03 07:56:56;;;;;;;4.45;2.40;;;;;;;;;;5077076;28;20039;-64
2023/05/03 07:59:22;;;;;;;4.55;2.10;;;;;;;;;;5083445;28;20042;-64
2023/05/03 08:01:48;;;;;;;4.90;2.58;;;;;;;;;;5090900;28;20418;-64
2023/05/03 08:04:14;;;;;;;4.47;2.30;;;;;;;;;;5092194;28;20044;-64
2023/05/03 08:06:41;;;;;;;3.58;2.72;;;;;;;;;;5092218;28;20039;-64
2023/05/03 08:09:07;;;;;;;6.22;2.25;;;;;;;;;;5063388;28;20040;-64
2023/05/03 08:11:33;;;;;;;4.50;2.28;;;;;;;;;;5087254;28;20072;-64
2023/05/03 08:13:59;;;;;;;3.58;2.20;;;;;;;;;;5091270;28;20036;-64
2023/05/03 08:16:25;;;;;;;4.95;2.60;;;;;;;;;;5091429;28;20085;-64
2023/05/03 08:18:51;;;;;;;6.53;2.40;;;;;;;;;;5092091;28;20040;-64
2023/05/03 08:21:18;;;;;;;3.88;2.78;;;;;;;;;;5079398;28;20082;-64
2023/05/03 08:23:44;;;;;;;4.28;2.40;;;;;;;;;;5087145;28;20040;-64
2023/05/03 08:26:12;;;;;;;3.90;2.70;;;;;;;;;;5090595;28;20058;-64
2023/05/03 08:28:38;;;;;;;3.78;2.00;;;;;;;;;;5091728;28;20043;-64
2023/05/03 08:31:06;;;;;;;4.60;2.22;;;;;;;;;;5072640;28;20433;-64
2023/05/03 08:33:32;;;;;;;4.78;2.47;;;;;;;;;;5090654;28;20551;-64
2023/05/03 08:35:58;;;;;;;6.30;2.22;;;;;;;;;;5089350;28;20036;-64
2023/05/03 08:38:24;;;;;;;4.28;2.40;;;;;;;;;;5091257;28;20028;-64
2023/05/03 08:40:51;;;;;;;3.85;2.13;;;;;;;;;;5090817;28;20051;-64
2023/05/03 08:43:19;;;;;;;3.40;2.83;;;;;;;;;;5091652;28;20083;-64
2023/05/03 08:45:45;;;;;;;3.22;2.33;;;;;;;;;;5089938;28;20028;-64
2023/05/03 08:48:12;;;;;;;7.15;2.40;;;;;;;;;;5091787;28;20056;-64
2023/05/03 08:50:41;;;;;;;3.50;2.17;;;;;;;;;;5090700;28;20044;-64
2023/05/03 08:53:07;;;;;;;6.00;2.47;;;;;;;;;;5091654;28;20102;-64
2023/05/03 08:55:34;;;;;;;4.07;2.90;;;;;;;;;;5090471;28;20036;-64
2023/05/03 08:58:00;;;;;;;4.63;2.35;;;;;;;;;;5090759;28;20029;-64
2023/05/03 09:00:29;;;;;;;5.13;2.40;;;;;;;;;;5091276;28;20138;-64
2023/05/03 09:02:55;;;;;;;3.95;2.47;;;;;;;;;;5079537;28;20139;-64
2023/05/03 09:05:21;;;;;;;6.20;2.60;;;;;;;;;;5062953;28;20126;-64
2023/05/03 09:08:08;;;;;;;4.00;2.38;;;;;;;;;;5091401;28;20135;-64
2023/05/03 09:10:37;;;;;;;3.90;2.00;;;;;;;;;;5090903;28;20119;-64
2023/05/03 09:13:03;;;;;;;3.20;2.15;;;;;;;;;;5083825;28;20101;-61
2023/05/03 09:15:29;;;;;;;6.97;2.20;;;;;;;;;;5090650;28;20477;-63
2023/05/03 09:18:07;;;;;;;7.40;2.42;;;;;;;;;;5091553;28;20572;-64
2023/05/03 09:20:35;;;;;;;3.40;2.10;;;;;;;;;;5091371;28;20040;-64
2023/05/03 09:23:01;;;;;;;3.60;2.05;;;;;;;;;;5077397;28;20052;-64
2023/05/03 09:25:44;;;;;;;2.95;2.10;;;;;;;;;;5094925;28;20040;-64
2023/05/03 09:28:10;;;;;;;3.85;2.10;;;;;;;;;;5095359;28;20036;-64
2023/05/03 09:30:36;;;;;;;5.03;2.40;;;;;;;;;;5094395;28;20559;-64
2023/05/03 09:33:03;;;;;;;5.88;2.30;;;;;;;;;;5087970;28;20040;-64
2023/05/03 09:35:29;;;;;;;4.00;2.03;;;;;;;;;;5094441;28;20044;-64
2023/05/03 09:37:55;;;;;;;2.75;2.03;;;;;;;;;;5095261;28;20040;-64
2023/05/03 09:40:21;;;;;;;5.07;2.28;;;;;;;;;;5094346;28;20063;-64
2023/05/03 09:43:06;;;;;;;5.07;2.47;;;;;;;;;;5086234;28;21462;-64
2023/05/03 09:45:33;;;;;;;4.95;2.47;;;;;;;;;;5094711;28;20047;-64
2023/05/03 09:48:00;;;;;;;4.15;2.30;;;;;;;;;;5094521;28;20043;-64
2023/05/03 09:50:26;;;;;;;3.28;2.20;;;;;;;;;;5094570;28;20040;-64
2023/05/03 09:52:53;;;;;;;4.95;2.33;;;;;;;;;;5093100;28;20036;-64
2023/05/03 09:55:20;;;;;;;3.97;1.98;;;;;;;;;;5094144;28;20081;-64
2023/05/03 09:57:47;;;;;;;6.50;2.17;;;;;;;;;;5094823;28;20075;-64
2023/05/03 10:00:15;;;;;;;3.50;2.40;;;;;;;;;;5092900;28;20032;-64
2023/05/03 10:02:41;;;;;;;4.18;2.40;;;;;;;;;;5091107;28;20044;-64
2023/05/03 10:05:11;;;;;;;4.53;2.33;;;;;;;;;;5094256;28;20036;-64
2023/05/03 10:07:39;;;;;;;5.53;2.25;;;;;;;;;;5094400;28;20052;-64
2023/05/03 10:12:42;;;;;;;6.80;2.45;;;;;;;;;;5108856;22;20048;-64
2023/05/03 10:15:10;;;;;;;5.88;2.25;;;;;;;;;;5107941;28;20042;-64
2023/05/03 10:17:37;;;;;;;3.28;2.35;;;;;;;;;;5113372;28;20106;-64
2023/05/03 10:20:32;;;;;;;3.30;2.20;;;;;;;;;;5114687;28;20389;-64
2023/05/03 10:23:04;;;;;;;6.45;2.42;;;;;;;;;;5082413;28;20421;-64
2023/05/03 10:25:31;;;;;;;3.55;2.40;;;;;;;;;;5094060;28;20048;-64
2023/05/03 10:28:03;;;;;;;6.22;2.50;;;;;;;;;;5090588;28;20139;-64
2023/05/03 10:30:33;;;;;;;5.10;2.47;;;;;;;;;;5079263;28;20040;-64
2023/05/03 10:33:20;;;;;;;6.03;2.60;;;;;;;;;;5073168;28;20032;-64
2023/05/03 10:35:53;;;;;;;3.17;2.20;;;;;;;;;;5070521;28;20040;-64
2023/05/03 10:38:23;;;;;;;3.50;2.30;;;;;;;;;;5070099;28;20396;-64
2023/05/03 10:40:49;;;;;;;5.47;2.90;;;;;;;;;;5089184;28;20036;-64
2023/05/03 10:43:27;;;;;;;2.70;2.40;;;;;;;;;;5088436;28;20444;-64
2023/05/03 10:45:53;;;;;;;3.72;2.28;;;;;;;;;;5077565;28;20039;-64
2023/05/03 10:48:19;;;;;;;5.88;2.22;;;;;;;;;;5093250;28;20040;-64
2023/05/03 10:50:46;;;;;;;3.65;2.40;;;;;;;;;;5093012;28;20051;-64
2023/05/03 10:53:32;;;;;;;5.35;2.55;;;;;;;;;;5087868;28;20040;-63
2023/05/03 10:56:04;;;;;;;3.90;2.20;;;;;;;;;;5084449;28;20123;-64
2023/05/03 10:58:30;;;;;;;4.07;2.45;;;;;;;;;;5086807;28;20036;-64
2023/05/03 11:00:56;;;;;;;3.90;2.30;;;;;;;;;;5092746;28;20105;-63
2023/05/03 11:03:32;;;;;;;3.92;2.40;;;;;;;;;;5086815;28;20028;-64
2023/05/03 11:05:58;;;;;;;3.35;2.30;;;;;;;;;;5089761;28;20035;-64
2023/05/03 11:08:29;;;;;;;4.80;2.58;;;;;;;;;;5072231;28;20040;-64
2023/05/03 11:10:59;;;;;;;3.65;2.60;;;;;;;;;;5082945;28;20214;-64
2023/05/03 11:13:25;;;;;;;3.10;2.35;;;;;;;;;;5090959;28;20071;-64
2023/05/03 11:15:52;;;;;;;5.50;2.40;;;;;;;;;;5087380;28;20123;-64
2023/05/03 11:18:18;;;;;;;4.65;2.72;;;;;;;;;;5076901;28;20028;-65
2023/05/03 11:20:44;;;;;;;3.55;2.50;;;;;;;;;;5086322;28;20039;-63
2023/05/03 11:23:11;;;;;;;5.38;2.58;;;;;;;;;;5089581;28;20040;-64
2023/05/03 11:25:38;;;;;;;4.20;2.53;;;;;;;;;;5089637;28;20119;-64
2023/05/03 11:28:04;;;;;;;4.30;2.63;;;;;;;;;;5080788;28;20676;-64
2023/05/03 11:30:33;;;;;;;4.93;2.20;;;;;;;;;;5091169;28;20081;-64
2023/05/03 11:32:59;;;;;;;3.92;2.30;;;;;;;;;;5090832;28;20505;-64
2023/05/03 11:35:28;;;;;;;3.40;2.78;;;;;;;;;;5084070;28;20040;-65
2023/05/03 11:37:53;;;;;;;2.80;2.60;;;;;;;;;;5084791;28;20800;-65
2023/05/03 11:40:20;;;;;;;4.43;2.60;;;;;;;;;;5093915;28;20032;-65
2023/05/03 11:42:57;;;;;;;4.30;2.42;;;;;;;;;;5087150;28;20090;-65
2023/05/03 11:45:24;;;;;;;4.13;2.88;;;;;;;;;;5084168;28;20122;-65
2023/05/03 11:47:51;;;;;;;5.53;2.80;;;;;;;;;;5088589;28;20097;-65
2023/05/03 11:50:17;;;;;;;7.70;2.83;;;;;;;;;;5092150;28;20036;-64
2023/05/03 11:52:43;;;;;;;8.05;3.75;;;;;;;;;;5091597;28;20044;-65
2023/05/03 11:55:11;;;;;;;6.60;3.10;;;;;;;;;;5068754;28;20063;-64
2023/05/03 11:57:37;;;;;;;4.38;3.00;;;;;;;;;;5067058;28;21490;-64
2023/05/03 12:00:13;;;;;;;4.13;2.95;;;;;;;;;;5067419;28;20046;-65
2023/05/03 12:02:39;;;;;;;4.45;3.00;;;;;;;;;;5088080;28;20040;-64
2023/05/03 12:05:06;;;;;;;5.65;3.08;;;;;;;;;;5086177;28;20398;-65
2023/05/03 12:07:32;;;;;;;4.50;2.90;;;;;;;;;;5088302;28;20071;-65
2023/05/03 12:09:59;;;;;;;4.25;3.05;;;;;;;;;;5090217;28;20047;-64
2023/05/03 12:12:25;;;;;;;4.32;3.20;;;;;;;;;;5091527;28;20414;-64
2023/05/03 12:14:58;;;;;;;4.45;3.13;;;;;;;;;;5070496;28;20044;-65
2023/05/03 12:17:34;;;;;;;4.05;3.20;;;;;;;;;;5087425;28;20044;-65
2023/05/03 12:20:17;;;;;;;6.05;2.92;;;;;;;;;;5068976;28;20048;-65
2023/05/03 12:22:43;;;;;;;4.80;3.05;;;;;;;;;;5075475;28;20052;-64
2023/05/03 12:25:09;;;;;;;5.88;3.22;;;;;;;;;;5068794;28;20086;-64
2023/05/03 12:27:35;;;;;;;5.35;3.33;;;;;;;;;;5089246;28;20039;-65
2023/05/03 12:30:01;;;;;;;3.78;3.22;;;;;;;;;;5091990;28;20040;-65
2023/05/03 12:32:27;;;;;;;9.05;3.40;;;;;;;;;;5091206;28;20040;-65
2023/05/03 12:34:56;;;;;;;4.80;3.50;;;;;;;;;;5080979;28;20066;-65
2023/05/03 12:37:21;;;;;;;4.63;3.03;;;;;;;;;;5091533;28;20032;-64
2023/05/03 12:39:47;;;;;;;5.45;3.33;;;;;;;;;;5091909;28;20119;-65
2023/05/03 12:42:13;;;;;;;4.22;2.90;;;;;;;;;;5090746;28;20036;-64
2023/05/03 12:44:40;;;;;;;4.50;3.28;;;;;;;;;;5082299;28;20047;-64
2023/05/03 12:47:06;;;;;;;4.35;3.47;;;;;;;;;;5070816;28;20094;-64
2023/05/03 12:49:33;;;;;;;5.50;3.40;;;;;;;;;;5066196;28;20044;-65
2023/05/03 12:51:59;;;;;;;7.28;4.53;;;;;;;;;;5064524;28;20055;-65
2023/05/03 12:54:25;;;;;;;4.85;3.60;;;;;;;;;;5065154;28;20674;-64
2023/05/03 12:56:51;;;;;;;5.38;3.60;;;;;;;;;;5068639;28;20040;-64
2023/05/03 12:59:17;;;;;;;6.05;3.90;;;;;;;;;;5086617;28;20499;-65
2023/05/03 13:01:43;;;;;;;5.70;3.28;;;;;;;;;;5095088;28;20040;-65
2023/05/03 13:04:10;;;;;;;5.38;3.50;;;;;;;;;;5094705;28;20086;-64
2023/05/03 13:06:37;;;;;;;6.68;3.50;;;;;;;;;;5085485;28;20043;-65
2023/05/03 13:09:04;;;;;;;4.15;3.75;;;;;;;;;;5073866;28;20102;-64
2023/05/03 13:11:31;;;;;;;4.53;3.70;;;;;;;;;;5071773;28;20058;-64
2023/05/03 13:13:57;;;;;;;8.20;3.60;;;;;;;;;;5092794;28;20056;-64
2023/05/03 13:16:24;;;;;;;6.85;4.13;;;;;;;;;;5093485;28;20036;-64
2023/05/03 13:18:54;;;;;;;5.07;4.00;;;;;;;;;;5084882;28;20052;-65
2023/05/03 13:21:20;;;;;;;6.32;3.38;;;;;;;;;;5093610;28;20446;-64
2023/05/03 13:23:46;;;;;;;6.70;3.92;;;;;;;;;;5094131;28;20043;-64
2023/05/03 13:26:12;;;;;;;8.63;4.13;;;;;;;;;;5085402;28;20032;-64
2023/05/03 13:28:40;;;;;;;4.85;3.85;;;;;;;;;;5073188;28;20058;-64
2023/05/03 13:31:06;;;;;;;5.20;3.60;;;;;;;;;;5092628;22;20110;-61
2023/05/03 13:33:36;;;;;;;5.03;3.63;;;;;;;;;;5072257;28;20036;-61
2023/05/03 13:36:02;;;;;;;4.45;3.45;;;;;;;;;;5071529;28;20119;-61
2023/05/03 13:38:28;;;;;;;6.93;3.90;;;;;;;;;;5058843;28;20036;-61
2023/05/03 13:40:55;;;;;;;4.10;3.42;;;;;;;;;;5067482;28;20395;-61
2023/05/03 13:43:20;;;;;;;4.97;3.10;;;;;;;;;;5056205;28;20490;-61
2023/05/03 13:45:46;;;;;;;5.95;4.10;;;;;;;;;;5069024;28;20055;-61
2023/05/03 13:48:12;;;;;;;5.28;4.00;;;;;;;;;;5063079;28;20784;-62
2023/05/03 13:50:38;;;;;;;5.32;3.70;;;;;;;;;;5073779;28;20064;-62
2023/05/03 13:53:05;;;;;;;5.30;3.80;;;;;;;;;;5073301;28;20079;-61
2023/05/03 13:55:31;;;;;;;6.18;3.80;;;;;;;;;;5060163;28;20064;-61
2023/05/03 13:57:57;;;;;;;6.93;4.10;;;;;;;;;;5062852;28;20480;-61
2023/05/03 14:00:23;;;;;;;5.80;3.63;;;;;;;;;;5051596;28;20032;-62
2023/05/03 14:02:50;;;;;;;4.93;3.90;;;;;;;;;;5050464;28;20044;-62
2023/05/03 14:05:18;;;;;;;4.32;3.85;;;;;;;;;;5065736;28;20097;-61
2023/05/03 14:07:44;;;;;;;6.75;3.60;;;;;;;;;;5072261;28;20040;-61
2023/05/03 14:10:10;;;;;;;9.55;3.60;;;;;;;;;;5053909;28;20040;-61
2023/05/03 14:12:36;;;;;;;6.03;3.85;;;;;;;;;;5065512;28;20148;-62
2023/05/03 14:15:03;;;;;;;5.13;4.00;;;;;;;;;;5068637;28;20177;-62
2023/05/03 14:17:29;;;;;;;6.03;3.55;;;;;;;;;;5059743;28;20112;-61
2023/05/03 14:19:56;;;;;;;5.15;3.75;;;;;;;;;;5051783;28;20043;-61
2023/05/03 14:22:22;;;;;;;7.22;3.80;;;;;;;;;;5070321;28;20040;-61
2023/05/03 14:24:49;;;;;;;5.45;3.55;;;;;;;;;;5063447;28;20044;-61
2023/05/03 14:27:19;;;;;;;5.57;3.60;;;;;;;;;;5072480;28;20402;-62
2023/05/03 14:29:45;;;;;;;5.67;3.90;;;;;;;;;;5071267;28;20044;-61
2023/05/03 14:32:12;;;;;;;6.07;3.58;;;;;;;;;;5072855;28;20044;-61
2023/05/03 14:34:38;;;;;;;4.60;3.53;;;;;;;;;;5068983;28;20074;-61
2023/05/03 14:37:04;;;;;;;4.68;3.95;;;;;;;;;;5071889;28;20131;-61
2023/05/03 14:39:30;;;;;;;3.88;3.58;;;;;;;;;;5069818;28;20039;-61
2023/05/03 14:41:56;;;;;;;6.65;3.80;;;;;;;;;;5065690;28;20387;-61
2023/05/03 14:44:22;;;;;;;7.55;3.78;;;;;;;;;;5069870;28;20029;-61
2023/05/03 14:46:48;;;;;;;5.22;3.47;;;;;;;;;;5070300;28;20406;-61